sensor_id;sensor_type;location;lat;lon;timestamp;temperature;humidity
10889;DHT22;5497;51.388;6.780;2022-09-13T00:01:07;17.50;99.90
10889;DHT22;5497;51.388;6.780;2022-09-13T00:03:34;17.50;99.90
10889;DHT22;5497;51.388;6.780;2022-09-13T00:06:08;17.50;99.90
10889;DHT22;5497;51.388;6.780;2022-09-13T00:08:35;17.40;99.90
10889;DHT22;5497;51.388;6.780;2022-09-13T00:11:03;17.40;99.90
10889;DHT22;5497;51.388;6.780;2022-09-13T00:13:29;17.50;99.90
10889;DHT22;5497;51.388;6.780;2022-09-13T00:15:56;17.50;99.90
10889;DHT22;5497;51.388;6.780;2022-09-13T00:18:25;17.50;99.90
10889;DHT22;5497;51.388;6.780;2022-09-13T00:21:02;17.50;99.90
10889;DHT22;5497;51.388;6.780;2022-09-13T00:23:28;17.50;99.90
10889;DHT22;5497;51.388;6.780;2022-09-13T00:26:02;17.50;99.90
10889;DHT22;5497;51.388;6.780;2022-09-13T00:28:29;17.50;99.90
10889;DHT22;5497;51.388;6.780;2022-09-13T00:30:57;17.50;99.90
10889;DHT22;5497;51.388;6.780;2022-09-13T00:33:24;17.50;99.90
10889;DHT22;5497;51.388;6.780;2022-09-13T00:35:51;17.50;99.90
10889;DHT22;5497;51.388;6.780;2022-09-13T00:38:18;17.60;99.90
10889;DHT22;5497;51.388;6.780;2022-09-13T00:40:44;17.60;99.90
10889;DHT22;5497;51.388;6.780;2022-09-13T00:43:14;17.70;99.90
10889;DHT22;5497;51.388;6.780;2022-09-13T00:45:41;17.70;99.90
10889;DHT22;5497;51.388;6.780;2022-09-13T00:48:09;17.70;99.90
10889;DHT22;5497;51.388;6.780;2022-09-13T00:50:41;17.60;99.90
10889;DHT22;5497;51.388;6.780;2022-09-13T00:53:10;17.60;99.90
10889;DHT22;5497;51.388;6.780;2022-09-13T00:55:39;17.60;99.90
10889;DHT22;5497;51.388;6.780;2022-09-13T00:58:07;17.50;99.90
10889;DHT22;5497;51.388;6.780;2022-09-13T01:00:37;17.50;99.90
10889;DHT22;5497;51.388;6.780;2022-09-13T01:03:04;17.50;99.90
10889;DHT22;5497;51.388;6.780;2022-09-13T01:05:33;17.40;99.90
10889;DHT22;5497;51.388;6.780;2022-09-13T01:08:01;17.20;99.90
10889;DHT22;5497;51.388;6.780;2022-09-13T01:10:28;17.30;99.90
10889;DHT22;5497;51.388;6.780;2022-09-13T01:12:57;17.30;99.90
10889;DHT22;5497;51.388;6.780;2022-09-13T01:15:25;17.20;99.90
10889;DHT22;5497;51.388;6.780;2022-09-13T01:17:53;17.20;99.90
10889;DHT22;5497;51.388;6.780;2022-09-13T01:20:20;17.10;99.90
10889;DHT22;5497;51.388;6.780;2022-09-13T01:23:06;17.10;99.90
10889;DHT22;5497;51.388;6.780;2022-09-13T01:28:32;17.10;99.90
10889;DHT22;5497;51.388;6.780;2022-09-13T01:31:05;17.10;99.90
10889;DHT22;5497;51.388;6.780;2022-09-13T01:33:42;17.10;99.90
10889;DHT22;5497;51.388;6.780;2022-09-13T01:36:29;17.10;99.90
10889;DHT22;5497;51.388;6.780;2022-09-13T01:39:01;17.00;99.90
10889;DHT22;5497;51.388;6.780;2022-09-13T01:41:33;17.00;99.90
10889;DHT22;5497;51.388;6.780;2022-09-13T01:44:09;17.00;99.90
10889;DHT22;5497;51.388;6.780;2022-09-13T01:46:43;17.10;99.90
10889;DHT22;5497;51.388;6.780;2022-09-13T01:49:13;17.10;99.90
10889;DHT22;5497;51.388;6.780;2022-09-13T01:51:42;17.20;99.90
10889;DHT22;5497;51.388;6.780;2022-09-13T01:54:14;17.20;99.90
10889;DHT22;5497;51.388;6.780;2022-09-13T01:56:43;17.30;99.90
10889;DHT22;5497;51.388;6.780;2022-09-13T01:59:15;17.30;99.90
10889;DHT22;5497;51.388;6.780;2022-09-13T02:01:47;17.30;99.90
10889;DHT22;5497;51.388;6.780;2022-09-13T02:04:18;17.40;99.90
10889;DHT22;5497;51.388;6.780;2022-09-13T02:06:47;17.40;99.90
10889;DHT22;5497;51.388;6.780;2022-09-13T02:09:17;17.40;99.90
10889;DHT22;5497;51.388;6.780;2022-09-13T02:11:45;17.50;99.90
10889;DHT22;5497;51.388;6.780;2022-09-13T02:14:13;17.50;99.90
10889;DHT22;5497;51.388;6.780;2022-09-13T02:16:41;17.50;99.90
10889;DHT22;5497;51.388;6.780;2022-09-13T02:19:13;17.50;99.90
10889;DHT22;5497;51.388;6.780;2022-09-13T02:21:43;17.50;99.90
10889;DHT22;5497;51.388;6.780;2022-09-13T02:24:12;17.50;99.90
10889;DHT22;5497;51.388;6.780;2022-09-13T02:26:40;17.50;99.90
10889;DHT22;5497;51.388;6.780;2022-09-13T02:29:12;16.90;99.90
10889;DHT22;5497;51.388;6.780;2022-09-13T02:31:41;17.50;99.90
10889;DHT22;5497;51.388;6.780;2022-09-13T02:34:09;17.40;99.90
10889;DHT22;5497;51.388;6.780;2022-09-13T02:36:39;17.40;99.90
10889;DHT22;5497;51.388;6.780;2022-09-13T02:39:08;17.40;99.90
10889;DHT22;5497;51.388;6.780;2022-09-13T02:41:38;17.40;99.90
10889;DHT22;5497;51.388;6.780;2022-09-13T02:44:08;17.40;99.90
10889;DHT22;5497;51.388;6.780;2022-09-13T02:46:44;17.40;99.90
10889;DHT22;5497;51.388;6.780;2022-09-13T02:49:13;17.50;99.90
10889;DHT22;5497;51.388;6.780;2022-09-13T02:51:44;17.50;99.90
10889;DHT22;5497;51.388;6.780;2022-09-13T02:54:19;17.50;99.90
10889;DHT22;5497;51.388;6.780;2022-09-13T02:56:50;17.50;99.90
10889;DHT22;5497;51.388;6.780;2022-09-13T02:59:19;17.60;99.90
10889;DHT22;5497;51.388;6.780;2022-09-13T03:01:48;17.60;99.90
10889;DHT22;5497;51.388;6.780;2022-09-13T03:04:16;17.60;99.90
10889;DHT22;5497;51.388;6.780;2022-09-13T03:06:42;17.60;99.90
10889;DHT22;5497;51.388;6.780;2022-09-13T03:09:10;17.60;99.90
10889;DHT22;5497;51.388;6.780;2022-09-13T03:11:40;17.60;99.90
10889;DHT22;5497;51.388;6.780;2022-09-13T03:14:15;17.70;99.90
10889;DHT22;5497;51.388;6.780;2022-09-13T03:16:48;17.70;99.90
10889;DHT22;5497;51.388;6.780;2022-09-13T03:19:26;17.70;99.90
10889;DHT22;5497;51.388;6.780;2022-09-13T03:21:59;17.70;99.90
10889;DHT22;5497;51.388;6.780;2022-09-13T03:24:31;17.70;99.90
10889;DHT22;5497;51.388;6.780;2022-09-13T03:27:05;17.80;99.90
10889;DHT22;5497;51.388;6.780;2022-09-13T03:29:37;17.80;99.90
10889;DHT22;5497;51.388;6.780;2022-09-13T03:32:08;17.70;99.90
10889;DHT22;5497;51.388;6.780;2022-09-13T03:34:40;17.70;99.90
10889;DHT22;5497;51.388;6.780;2022-09-13T03:37:09;17.70;99.90
10889;DHT22;5497;51.388;6.780;2022-09-13T03:39:41;17.70;99.90
10889;DHT22;5497;51.388;6.780;2022-09-13T03:42:11;17.60;99.90
10889;DHT22;5497;51.388;6.780;2022-09-13T03:44:40;17.60;99.90
10889;DHT22;5497;51.388;6.780;2022-09-13T03:47:08;17.50;99.90
10889;DHT22;5497;51.388;6.780;2022-09-13T03:49:36;17.50;99.90
10889;DHT22;5497;51.388;6.780;2022-09-13T03:52:04;17.40;99.90
10889;DHT22;5497;51.388;6.780;2022-09-13T03:54:31;17.40;99.90
10889;DHT22;5497;51.388;6.780;2022-09-13T03:57:06;17.40;99.90
10889;DHT22;5497;51.388;6.780;2022-09-13T03:59:34;17.30;99.90
10889;DHT22;5497;51.388;6.780;2022-09-13T04:02:03;17.30;99.90
10889;DHT22;5497;51.388;6.780;2022-09-13T04:04:30;17.30;99.90
10889;DHT22;5497;51.388;6.780;2022-09-13T04:06:57;17.70;99.90
10889;DHT22;5497;51.388;6.780;2022-09-13T04:09:27;17.30;99.90
10889;DHT22;5497;51.388;6.780;2022-09-13T04:11:54;17.30;99.90
10889;DHT22;5497;51.388;6.780;2022-09-13T04:14:22;17.30;99.90
10889;DHT22;5497;51.388;6.780;2022-09-13T04:16:51;17.30;99.90
10889;DHT22;5497;51.388;6.780;2022-09-13T04:19:18;17.20;99.90
10889;DHT22;5497;51.388;6.780;2022-09-13T04:21:46;17.20;99.90
10889;DHT22;5497;51.388;6.780;2022-09-13T04:24:12;17.20;99.90
10889;DHT22;5497;51.388;6.780;2022-09-13T04:26:39;17.20;99.90
10889;DHT22;5497;51.388;6.780;2022-09-13T04:29:06;17.20;99.90
10889;DHT22;5497;51.388;6.780;2022-09-13T04:31:34;17.80;99.90
10889;DHT22;5497;51.388;6.780;2022-09-13T04:34:01;17.20;99.90
10889;DHT22;5497;51.388;6.780;2022-09-13T04:36:28;17.20;99.90
10889;DHT22;5497;51.388;6.780;2022-09-13T04:38:56;17.20;99.90
10889;DHT22;5497;51.388;6.780;2022-09-13T04:41:24;17.20;99.90
10889;DHT22;5497;51.388;6.780;2022-09-13T04:43:51;17.20;99.90
10889;DHT22;5497;51.388;6.780;2022-09-13T04:46:17;17.20;99.90
10889;DHT22;5497;51.388;6.780;2022-09-13T04:48:48;17.20;99.90
10889;DHT22;5497;51.388;6.780;2022-09-13T04:51:15;17.20;99.90
10889;DHT22;5497;51.388;6.780;2022-09-13T04:53:42;17.20;99.90
10889;DHT22;5497;51.388;6.780;2022-09-13T04:56:09;17.20;99.90
10889;DHT22;5497;51.388;6.780;2022-09-13T04:58:38;17.20;99.90
10889;DHT22;5497;51.388;6.780;2022-09-13T05:01:06;17.10;99.90
10889;DHT22;5497;51.388;6.780;2022-09-13T05:03:33;17.10;99.90
10889;DHT22;5497;51.388;6.780;2022-09-13T05:06:02;17.20;99.90
10889;DHT22;5497;51.388;6.780;2022-09-13T05:08:30;17.10;99.90
10889;DHT22;5497;51.388;6.780;2022-09-13T05:10:56;17.00;99.90
10889;DHT22;5497;51.388;6.780;2022-09-13T05:13:23;17.00;99.90
10889;DHT22;5497;51.388;6.780;2022-09-13T05:15:53;17.00;99.90
10889;DHT22;5497;51.388;6.780;2022-09-13T05:18:20;17.00;99.90
10889;DHT22;5497;51.388;6.780;2022-09-13T05:20:46;17.00;99.90
10889;DHT22;5497;51.388;6.780;2022-09-13T05:23:14;17.00;99.90
10889;DHT22;5497;51.388;6.780;2022-09-13T05:25:41;17.00;99.90
10889;DHT22;5497;51.388;6.780;2022-09-13T05:28:08;17.00;99.90
10889;DHT22;5497;51.388;6.780;2022-09-13T05:30:34;17.00;99.90
10889;DHT22;5497;51.388;6.780;2022-09-13T05:33:03;17.10;99.90
10889;DHT22;5497;51.388;6.780;2022-09-13T05:35:30;17.10;99.90
10889;DHT22;5497;51.388;6.780;2022-09-13T05:37:56;17.10;99.90
10889;DHT22;5497;51.388;6.780;2022-09-13T05:40:24;17.20;99.90
10889;DHT22;5497;51.388;6.780;2022-09-13T05:42:51;17.30;99.90
10889;DHT22;5497;51.388;6.780;2022-09-13T05:45:18;17.30;99.90
10889;DHT22;5497;51.388;6.780;2022-09-13T05:47:47;17.30;99.90
10889;DHT22;5497;51.388;6.780;2022-09-13T05:50:15;17.40;99.90
10889;DHT22;5497;51.388;6.780;2022-09-13T05:52:42;17.40;99.90
10889;DHT22;5497;51.388;6.780;2022-09-13T05:55:08;17.40;99.90
10889;DHT22;5497;51.388;6.780;2022-09-13T05:57:37;17.50;99.90
10889;DHT22;5497;51.388;6.780;2022-09-13T06:00:04;17.50;99.90
10889;DHT22;5497;51.388;6.780;2022-09-13T06:02:37;17.60;99.90
10889;DHT22;5497;51.388;6.780;2022-09-13T06:05:04;17.60;99.90
10889;DHT22;5497;51.388;6.780;2022-09-13T06:07:31;17.70;99.90
10889;DHT22;5497;51.388;6.780;2022-09-13T06:09:58;17.70;99.90
10889;DHT22;5497;51.388;6.780;2022-09-13T06:12:24;17.80;99.90
10889;DHT22;5497;51.388;6.780;2022-09-13T06:14:53;17.90;99.90
10889;DHT22;5497;51.388;6.780;2022-09-13T06:17:19;17.90;99.90
10889;DHT22;5497;51.388;6.780;2022-09-13T06:19:46;18.00;99.90
10889;DHT22;5497;51.388;6.780;2022-09-13T06:22:13;18.10;99.90
10889;DHT22;5497;51.388;6.780;2022-09-13T06:24:39;18.20;99.90
10889;DHT22;5497;51.388;6.780;2022-09-13T06:27:06;18.30;99.90
10889;DHT22;5497;51.388;6.780;2022-09-13T06:29:34;18.40;99.90
10889;DHT22;5497;51.388;6.780;2022-09-13T06:32:03;18.60;99.90
10889;DHT22;5497;51.388;6.780;2022-09-13T06:34:29;18.60;99.90
10889;DHT22;5497;51.388;6.780;2022-09-13T06:36:56;18.90;99.90
10889;DHT22;5497;51.388;6.780;2022-09-13T06:39:23;19.20;99.90
10889;DHT22;5497;51.388;6.780;2022-09-13T06:41:50;19.60;99.90
10889;DHT22;5497;51.388;6.780;2022-09-13T06:44:26;19.70;99.90
10889;DHT22;5497;51.388;6.780;2022-09-13T06:46:52;20.00;99.90
10889;DHT22;5497;51.388;6.780;2022-09-13T06:49:20;20.10;99.90
10889;DHT22;5497;51.388;6.780;2022-09-13T06:51:47;20.20;99.90
10889;DHT22;5497;51.388;6.780;2022-09-13T06:54:14;20.30;99.90
10889;DHT22;5497;51.388;6.780;2022-09-13T06:56:40;20.40;99.90
10889;DHT22;5497;51.388;6.780;2022-09-13T06:59:08;20.40;99.90
10889;DHT22;5497;51.388;6.780;2022-09-13T07:04:17;20.60;99.90
10889;DHT22;5497;51.388;6.780;2022-09-13T07:06:47;20.70;99.90
10889;DHT22;5497;51.388;6.780;2022-09-13T07:09:15;20.90;99.90
10889;DHT22;5497;51.388;6.780;2022-09-13T07:11:42;21.30;99.90
10889;DHT22;5497;51.388;6.780;2022-09-13T07:14:11;21.30;99.90
10889;DHT22;5497;51.388;6.780;2022-09-13T07:16:38;21.40;99.90
10889;DHT22;5497;51.388;6.780;2022-09-13T07:19:06;21.50;99.90
10889;DHT22;5497;51.388;6.780;2022-09-13T07:21:34;21.50;99.90
10889;DHT22;5497;51.388;6.780;2022-09-13T07:24:03;21.50;99.90
10889;DHT22;5497;51.388;6.780;2022-09-13T07:26:30;21.50;99.90
10889;DHT22;5497;51.388;6.780;2022-09-13T07:28:57;21.50;99.90
10889;DHT22;5497;51.388;6.780;2022-09-13T07:31:25;21.80;99.90
10889;DHT22;5497;51.388;6.780;2022-09-13T07:33:53;21.80;99.90
10889;DHT22;5497;51.388;6.780;2022-09-13T07:36:20;22.10;99.90
10889;DHT22;5497;51.388;6.780;2022-09-13T07:38:47;22.40;99.90
10889;DHT22;5497;51.388;6.780;2022-09-13T07:41:16;22.80;99.90
10889;DHT22;5497;51.388;6.780;2022-09-13T07:43:43;22.80;99.90
10889;DHT22;5497;51.388;6.780;2022-09-13T07:46:10;22.90;99.90
10889;DHT22;5497;51.388;6.780;2022-09-13T07:48:38;23.10;99.90
10889;DHT22;5497;51.388;6.780;2022-09-13T07:51:06;23.20;99.90
10889;DHT22;5497;51.388;6.780;2022-09-13T07:53:33;23.40;99.90
10889;DHT22;5497;51.388;6.780;2022-09-13T07:56:00;23.50;99.90
10889;DHT22;5497;51.388;6.780;2022-09-13T07:58:29;23.70;99.90
10889;DHT22;5497;51.388;6.780;2022-09-13T08:00:57;23.80;99.90
10889;DHT22;5497;51.388;6.780;2022-09-13T08:03:26;24.00;99.90
10889;DHT22;5497;51.388;6.780;2022-09-13T08:05:54;24.20;99.90
10889;DHT22;5497;51.388;6.780;2022-09-13T08:08:21;24.30;99.90
10889;DHT22;5497;51.388;6.780;2022-09-13T08:10:48;24.50;99.90
10889;DHT22;5497;51.388;6.780;2022-09-13T08:13:14;24.60;99.90
10889;DHT22;5497;51.388;6.780;2022-09-13T08:15:42;24.70;99.90
10889;DHT22;5497;51.388;6.780;2022-09-13T08:18:09;24.80;99.90
10889;DHT22;5497;51.388;6.780;2022-09-13T08:20:36;24.90;99.90
10889;DHT22;5497;51.388;6.780;2022-09-13T08:23:03;25.20;99.90
10889;DHT22;5497;51.388;6.780;2022-09-13T08:25:31;25.40;99.90
10889;DHT22;5497;51.388;6.780;2022-09-13T08:27:59;25.80;99.90
10889;DHT22;5497;51.388;6.780;2022-09-13T08:30:25;26.30;99.90
10889;DHT22;5497;51.388;6.780;2022-09-13T08:32:59;26.70;99.90
10889;DHT22;5497;51.388;6.780;2022-09-13T08:35:27;26.90;99.90
10889;DHT22;5497;51.388;6.780;2022-09-13T08:37:53;26.90;99.90
10889;DHT22;5497;51.388;6.780;2022-09-13T08:40:20;26.90;99.90
10889;DHT22;5497;51.388;6.780;2022-09-13T08:42:49;27.00;99.90
10889;DHT22;5497;51.388;6.780;2022-09-13T08:45:16;27.30;99.90
10889;DHT22;5497;51.388;6.780;2022-09-13T08:47:45;27.60;99.90
10889;DHT22;5497;51.388;6.780;2022-09-13T08:50:16;27.90;99.90
10889;DHT22;5497;51.388;6.780;2022-09-13T08:52:46;28.00;99.90
10889;DHT22;5497;51.388;6.780;2022-09-13T08:55:18;27.80;99.90
10889;DHT22;5497;51.388;6.780;2022-09-13T08:57:47;27.70;99.90
10889;DHT22;5497;51.388;6.780;2022-09-13T09:00:19;27.70;99.90
10889;DHT22;5497;51.388;6.780;2022-09-13T09:02:50;27.70;99.90
10889;DHT22;5497;51.388;6.780;2022-09-13T09:05:22;27.80;99.90
10889;DHT22;5497;51.388;6.780;2022-09-13T09:07:50;27.90;99.90
10889;DHT22;5497;51.388;6.780;2022-09-13T09:10:18;28.10;99.90
10889;DHT22;5497;51.388;6.780;2022-09-13T09:12:46;28.20;99.90
10889;DHT22;5497;51.388;6.780;2022-09-13T09:15:16;28.20;99.90
10889;DHT22;5497;51.388;6.780;2022-09-13T09:17:45;28.30;99.90
10889;DHT22;5497;51.388;6.780;2022-09-13T09:20:15;28.30;99.90
10889;DHT22;5497;51.388;6.780;2022-09-13T09:22:45;28.40;99.90
10889;DHT22;5497;51.388;6.780;2022-09-13T09:25:13;28.30;99.90
10889;DHT22;5497;51.388;6.780;2022-09-13T09:27:39;28.30;99.90
10889;DHT22;5497;51.388;6.780;2022-09-13T09:30:10;28.20;99.90
10889;DHT22;5497;51.388;6.780;2022-09-13T09:35:29;27.90;99.90
10889;DHT22;5497;51.388;6.780;2022-09-13T09:40:44;27.80;99.90
10889;DHT22;5497;51.388;6.780;2022-09-13T09:43:12;27.80;99.90
10889;DHT22;5497;51.388;6.780;2022-09-13T09:45:40;27.80;99.90
10889;DHT22;5497;51.388;6.780;2022-09-13T09:48:11;27.80;99.90
10889;DHT22;5497;51.388;6.780;2022-09-13T09:50:43;27.70;99.90
10889;DHT22;5497;51.388;6.780;2022-09-13T09:53:11;27.70;99.90
10889;DHT22;5497;51.388;6.780;2022-09-13T09:55:41;27.60;99.90
10889;DHT22;5497;51.388;6.780;2022-09-13T09:58:11;27.40;99.90
10889;DHT22;5497;51.388;6.780;2022-09-13T10:00:49;27.40;99.90
10889;DHT22;5497;51.388;6.780;2022-09-13T10:03:17;27.20;99.90
10889;DHT22;5497;51.388;6.780;2022-09-13T10:05:44;27.10;99.90
10889;DHT22;5497;51.388;6.780;2022-09-13T10:08:21;27.20;99.90
10889;DHT22;5497;51.388;6.780;2022-09-13T10:10:51;27.20;99.90
10889;DHT22;5497;51.388;6.780;2022-09-13T10:13:20;27.20;99.90
10889;DHT22;5497;51.388;6.780;2022-09-13T10:15:53;27.20;99.90
10889;DHT22;5497;51.388;6.780;2022-09-13T10:18:22;27.10;99.90
10889;DHT22;5497;51.388;6.780;2022-09-13T10:21:00;27.10;99.90
10889;DHT22;5497;51.388;6.780;2022-09-13T10:23:27;27.10;99.90
10889;DHT22;5497;51.388;6.780;2022-09-13T10:25:59;27.20;99.90
10889;DHT22;5497;51.388;6.780;2022-09-13T10:28:30;27.30;99.90
10889;DHT22;5497;51.388;6.780;2022-09-13T10:30:58;27.40;99.90
10889;DHT22;5497;51.388;6.780;2022-09-13T10:33:27;27.60;99.90
10889;DHT22;5497;51.388;6.780;2022-09-13T10:35:57;27.70;99.90
10889;DHT22;5497;51.388;6.780;2022-09-13T10:38:33;27.80;99.90
10889;DHT22;5497;51.388;6.780;2022-09-13T10:41:02;27.90;99.90
10889;DHT22;5497;51.388;6.780;2022-09-13T10:43:32;27.90;99.90
10889;DHT22;5497;51.388;6.780;2022-09-13T10:45:59;27.90;99.90
10889;DHT22;5497;51.388;6.780;2022-09-13T10:48:27;28.10;99.90
10889;DHT22;5497;51.388;6.780;2022-09-13T10:51:02;28.20;99.90
10889;DHT22;5497;51.388;6.780;2022-09-13T10:53:31;28.50;99.90
10889;DHT22;5497;51.388;6.780;2022-09-13T10:55:58;28.70;99.90
10889;DHT22;5497;51.388;6.780;2022-09-13T10:58:27;28.80;99.90
10889;DHT22;5497;51.388;6.780;2022-09-13T11:00:59;28.90;99.90
10889;DHT22;5497;51.388;6.780;2022-09-13T11:03:33;28.80;99.90
10889;DHT22;5497;51.388;6.780;2022-09-13T11:06:04;28.70;99.90
10889;DHT22;5497;51.388;6.780;2022-09-13T11:08:36;28.60;99.90
10889;DHT22;5497;51.388;6.780;2022-09-13T11:11:07;28.50;99.90
10889;DHT22;5497;51.388;6.780;2022-09-13T11:13:39;28.50;99.90
10889;DHT22;5497;51.388;6.780;2022-09-13T11:16:13;28.50;99.90
10889;DHT22;5497;51.388;6.780;2022-09-13T11:18:48;28.50;99.90
10889;DHT22;5497;51.388;6.780;2022-09-13T11:21:25;28.40;99.90
10889;DHT22;5497;51.388;6.780;2022-09-13T11:23:56;28.40;99.90
10889;DHT22;5497;51.388;6.780;2022-09-13T11:26:33;28.50;99.90
10889;DHT22;5497;51.388;6.780;2022-09-13T11:29:03;28.60;99.90
10889;DHT22;5497;51.388;6.780;2022-09-13T11:31:37;28.50;99.90
10889;DHT22;5497;51.388;6.780;2022-09-13T11:34:13;28.50;99.90
10889;DHT22;5497;51.388;6.780;2022-09-13T11:36:46;28.50;99.90
10889;DHT22;5497;51.388;6.780;2022-09-13T11:39:15;28.50;99.90
10889;DHT22;5497;51.388;6.780;2022-09-13T11:41:47;28.50;99.90
10889;DHT22;5497;51.388;6.780;2022-09-13T11:47:05;28.50;99.90
10889;DHT22;5497;51.388;6.780;2022-09-13T11:49:36;28.50;99.90
10889;DHT22;5497;51.388;6.780;2022-09-13T11:52:09;28.50;99.90
10889;DHT22;5497;51.388;6.780;2022-09-13T11:54:42;28.50;99.90
10889;DHT22;5497;51.388;6.780;2022-09-13T11:57:13;28.60;99.90
10889;DHT22;5497;51.388;6.780;2022-09-13T11:59:42;28.60;99.90
10889;DHT22;5497;51.388;6.780;2022-09-13T12:02:15;28.70;99.90
10889;DHT22;5497;51.388;6.780;2022-09-13T12:04:44;28.70;99.90
10889;DHT22;5497;51.388;6.780;2022-09-13T12:07:14;28.90;99.90
10889;DHT22;5497;51.388;6.780;2022-09-13T12:09:45;29.00;99.90
10889;DHT22;5497;51.388;6.780;2022-09-13T12:12:14;29.20;99.90
10889;DHT22;5497;51.388;6.780;2022-09-13T12:14:42;29.30;99.90
10889;DHT22;5497;51.388;6.780;2022-09-13T12:17:14;29.40;99.90
10889;DHT22;5497;51.388;6.780;2022-09-13T12:19:48;29.40;99.90
10889;DHT22;5497;51.388;6.780;2022-09-13T12:22:19;29.30;99.90
10889;DHT22;5497;51.388;6.780;2022-09-13T12:24:47;29.30;99.90
10889;DHT22;5497;51.388;6.780;2022-09-13T12:27:20;29.30;99.90
10889;DHT22;5497;51.388;6.780;2022-09-13T12:29:49;29.40;99.90
10889;DHT22;5497;51.388;6.780;2022-09-13T12:32:17;29.40;99.90
10889;DHT22;5497;51.388;6.780;2022-09-13T12:34:45;29.70;99.90
10889;DHT22;5497;51.388;6.780;2022-09-13T12:37:18;29.80;99.90
10889;DHT22;5497;51.388;6.780;2022-09-13T12:45:20;30.10;99.90
10889;DHT22;5497;51.388;6.780;2022-09-13T12:50:45;30.10;99.90
10889;DHT22;5497;51.388;6.780;2022-09-13T12:53:20;30.10;99.90
10889;DHT22;5497;51.388;6.780;2022-09-13T12:55:53;30.10;99.90
10889;DHT22;5497;51.388;6.780;2022-09-13T12:58:29;30.10;99.90
10889;DHT22;5497;51.388;6.780;2022-09-13T13:01:05;30.10;99.90
10889;DHT22;5497;51.388;6.780;2022-09-13T13:03:34;30.10;99.90
10889;DHT22;5497;51.388;6.780;2022-09-13T13:06:07;30.00;99.90
10889;DHT22;5497;51.388;6.780;2022-09-13T13:08:35;30.10;99.90
10889;DHT22;5497;51.388;6.780;2022-09-13T13:11:03;30.20;99.90
10889;DHT22;5497;51.388;6.780;2022-09-13T13:13:32;30.30;99.90
10889;DHT22;5497;51.388;6.780;2022-09-13T13:16:01;30.20;99.90
10889;DHT22;5497;51.388;6.780;2022-09-13T13:18:30;30.10;99.90
10889;DHT22;5497;51.388;6.780;2022-09-13T13:26:45;29.90;99.90
10889;DHT22;5497;51.388;6.780;2022-09-13T13:29:15;29.90;99.90
10889;DHT22;5497;51.388;6.780;2022-09-13T13:31:43;30.10;99.90
10889;DHT22;5497;51.388;6.780;2022-09-13T13:36:57;30.20;99.90
10889;DHT22;5497;51.388;6.780;2022-09-13T13:39:35;30.20;99.90
10889;DHT22;5497;51.388;6.780;2022-09-13T13:42:10;30.20;99.90
10889;DHT22;5497;51.388;6.780;2022-09-13T13:47:51;30.40;99.90
10889;DHT22;5497;51.388;6.780;2022-09-13T13:50:18;30.30;99.90
10889;DHT22;5497;51.388;6.780;2022-09-13T13:52:53;30.20;99.90
10889;DHT22;5497;51.388;6.780;2022-09-13T13:55:38;30.20;99.90
10889;DHT22;5497;51.388;6.780;2022-09-13T13:58:11;30.30;99.90
10889;DHT22;5497;51.388;6.780;2022-09-13T14:00:45;30.20;99.90
10889;DHT22;5497;51.388;6.780;2022-09-13T14:03:15;30.00;99.90
10889;DHT22;5497;51.388;6.780;2022-09-13T14:05:48;29.90;99.90
10889;DHT22;5497;51.388;6.780;2022-09-13T14:08:28;29.70;99.90
10889;DHT22;5497;51.388;6.780;2022-09-13T14:11:00;29.50;99.90
10889;DHT22;5497;51.388;6.780;2022-09-13T14:16:14;28.80;99.90
10889;DHT22;5497;51.388;6.780;2022-09-13T14:21:30;28.10;99.90
10889;DHT22;5497;51.388;6.780;2022-09-13T14:24:08;28.10;99.90
10889;DHT22;5497;51.388;6.780;2022-09-13T14:26:35;27.90;99.90
10889;DHT22;5497;51.388;6.780;2022-09-13T14:29:05;27.80;99.90
10889;DHT22;5497;51.388;6.780;2022-09-13T14:31:33;27.70;99.90
10889;DHT22;5497;51.388;6.780;2022-09-13T14:34:00;27.70;99.90
10889;DHT22;5497;51.388;6.780;2022-09-13T14:36:27;27.80;99.90
10889;DHT22;5497;51.388;6.780;2022-09-13T14:38:55;27.80;99.90
10889;DHT22;5497;51.388;6.780;2022-09-13T14:41:28;27.90;99.90
10889;DHT22;5497;51.388;6.780;2022-09-13T14:44:07;27.90;99.90
10889;DHT22;5497;51.388;6.780;2022-09-13T14:46:41;28.00;99.90
10889;DHT22;5497;51.388;6.780;2022-09-13T14:49:09;27.90;99.90
10889;DHT22;5497;51.388;6.780;2022-09-13T14:51:42;27.80;99.90
10889;DHT22;5497;51.388;6.780;2022-09-13T14:54:13;27.80;99.90
10889;DHT22;5497;51.388;6.780;2022-09-13T14:56:41;27.80;99.90
10889;DHT22;5497;51.388;6.780;2022-09-13T14:59:11;27.70;99.90
10889;DHT22;5497;51.388;6.780;2022-09-13T15:01:38;27.60;99.90
10889;DHT22;5497;51.388;6.780;2022-09-13T15:04:06;27.60;99.90
10889;DHT22;5497;51.388;6.780;2022-09-13T15:06:34;27.60;99.90
10889;DHT22;5497;51.388;6.780;2022-09-13T15:09:13;27.50;99.90
10889;DHT22;5497;51.388;6.780;2022-09-13T15:11:40;27.40;99.90
10889;DHT22;5497;51.388;6.780;2022-09-13T15:16:50;27.30;99.90
10889;DHT22;5497;51.388;6.780;2022-09-13T15:19:27;27.20;99.90
10889;DHT22;5497;51.388;6.780;2022-09-13T15:24:38;26.90;99.90
10889;DHT22;5497;51.388;6.780;2022-09-13T15:27:15;26.80;99.90
10889;DHT22;5497;51.388;6.780;2022-09-13T15:29:46;26.70;99.90
10889;DHT22;5497;51.388;6.780;2022-09-13T15:32:17;26.50;99.90
10889;DHT22;5497;51.388;6.780;2022-09-13T15:34:46;26.40;99.90
10889;DHT22;5497;51.388;6.780;2022-09-13T15:37:13;26.40;99.90
10889;DHT22;5497;51.388;6.780;2022-09-13T15:39:41;26.40;99.90
10889;DHT22;5497;51.388;6.780;2022-09-13T15:42:07;26.30;99.90
10889;DHT22;5497;51.388;6.780;2022-09-13T15:44:34;26.30;99.90
10889;DHT22;5497;51.388;6.780;2022-09-13T15:47:01;26.30;99.90
10889;DHT22;5497;51.388;6.780;2022-09-13T15:49:29;26.30;99.90
10889;DHT22;5497;51.388;6.780;2022-09-13T15:51:58;26.20;99.90
10889;DHT22;5497;51.388;6.780;2022-09-13T15:54:26;26.10;99.90
10889;DHT22;5497;51.388;6.780;2022-09-13T15:56:57;26.10;99.90
10889;DHT22;5497;51.388;6.780;2022-09-13T15:59:24;26.00;99.90
10889;DHT22;5497;51.388;6.780;2022-09-13T16:01:51;26.00;99.90
10889;DHT22;5497;51.388;6.780;2022-09-13T16:04:18;26.20;99.90
10889;DHT22;5497;51.388;6.780;2022-09-13T16:06:44;25.90;99.90
10889;DHT22;5497;51.388;6.780;2022-09-13T16:09:17;26.00;99.90
10889;DHT22;5497;51.388;6.780;2022-09-13T16:11:44;25.90;99.90
10889;DHT22;5497;51.388;6.780;2022-09-13T16:14:11;25.90;99.90
10889;DHT22;5497;51.388;6.780;2022-09-13T16:16:38;25.80;99.90
10889;DHT22;5497;51.388;6.780;2022-09-13T16:19:12;25.80;99.90
10889;DHT22;5497;51.388;6.780;2022-09-13T16:21:40;25.70;99.90
10889;DHT22;5497;51.388;6.780;2022-09-13T16:24:06;25.60;99.90
10889;DHT22;5497;51.388;6.780;2022-09-13T16:26:34;25.60;99.90
10889;DHT22;5497;51.388;6.780;2022-09-13T16:29:01;25.50;99.90
10889;DHT22;5497;51.388;6.780;2022-09-13T16:31:28;25.40;99.90
10889;DHT22;5497;51.388;6.780;2022-09-13T16:33:55;25.30;99.90
10889;DHT22;5497;51.388;6.780;2022-09-13T16:36:22;25.30;99.90
10889;DHT22;5497;51.388;6.780;2022-09-13T16:38:48;25.20;99.90
10889;DHT22;5497;51.388;6.780;2022-09-13T16:41:15;25.10;99.90
10889;DHT22;5497;51.388;6.780;2022-09-13T16:43:43;25.10;99.90